Extreme high temperature From: 16-07-2018 05:00 Until: 19:00 warning for: Extreme high temperature Level: Yellow info button
suomi:
Hellevaroitus: Lähivuorokauden aikana on odotettavissa tukalaa hellettä.

svenska:
Varning för värmebölja: Under det närmaste dygnet är den svåra hettan att vänta.

english:
Heat wave warning: Warm weather is expected during the coming 24 hours. 


Thunder radar more information blitzortung!


Löydät sääaseman tiedot myös:

European Weather Network

Finland Weather Exchange

Weather Underground

AWEKAS



Weather Underground säähistoriasivu

Päivittäin yhteenveto Tammikuu 15, 2017 Yksiköt:  Molemmat    Englantilaiset   Metriset
« Edellinen Päivä
Seuraava Päivä »
Päivittäin Viikoittain Kuukausittain Vuosittain Mukautettu
  Korkea: Matala: Keskiarvo:
Lämpötila: TemperatureC °F /  -17.8 °C -9.9 °F /  -23.3 °C -7.2 °F /  -21.8 °C
Kastepiste: DewpointC °F /  -17.8 °C -10.9 °F /  -23.8 °C -8 °F /  -22.2 °C
Kosteus: Humidity % 92 % 93 %
Tuulen nopeus: WindSpeedKMH mph /  0 km/h - 0.3 mph /  0.5 km/h
Tuulenpuuska: WindSpeedGustKMH mph /  0 km/h - -
Tuuli:- - SSW
Ilmanpaine: PressurehPa in /  0 hPa 1000.6 in /  33880.3 hPa -
Sade: 0.0 in /  0 mm    
Historical Graphs
 
 
Taulukkotiedot Tammikuu 15, 2017
Aika Lämpötila Kastepiste Ilmanpaine Tuuli Tuulen nopeus Tuulenpuuska Kosteus Sademäärä (tunneittain)
TemperatureC °F /  -17.8 °C DewpointC °F /  -17.8 °C PressurehPa in /  0 hPa Calm     Humidity % HourlyPrecipMM in /  0 mm
00:00 -6.6 °F /  -21.4 °C -7.4 °F /  -21.9 °C 1000.6 in /  33880.3 hPa Calm     94 % 0.0 in /  0 mm
00:15 -6.8 °F /  -21.6 °C -7.4 °F /  -21.9 °C 1000.9 in /  33890.5 hPa Calm     95 % 0.0 in /  0 mm
00:30 -6.6 °F /  -21.4 °C -7.3 °F /  -21.8 °C 1000.9 in /  33890.5 hPa Calm   3.2 mph /  5.1 km/h 95 % 0.0 in /  0 mm
00:45 -6.5 °F /  -21.4 °C -7.2 °F /  -21.8 °C 1000.9 in /  33890.5 hPa Calm     95 % 0.0 in /  0 mm
01:00 -6.4 °F /  -21.3 °C -7.1 °F /  -21.7 °C 1000.9 in /  33890.5 hPa Calm   3.2 mph /  5.1 km/h 95 % 0.0 in /  0 mm
01:15 -6.5 °F /  -21.4 °C -7.2 °F /  -21.8 °C 1001.2 in /  33900.6 hPa Calm   4.8 mph /  7.7 km/h 95 % 0.0 in /  0 mm
01:30 -6.7 °F /  -21.5 °C -7.5 °F /  -21.9 °C 1001.2 in /  33900.6 hPa Calm   1.6 mph /  2.6 km/h 94 % 0.0 in /  0 mm
01:45 -6.8 °F /  -21.6 °C -7.6 °F /  -22 °C 1001.6 in /  33914.2 hPa Calm   3.2 mph /  5.1 km/h 94 % 0.0 in /  0 mm
02:00 -6.9 °F /  -21.6 °C -7.7 °F /  -22.1 °C 1001.6 in /  33914.2 hPa Calm     94 % 0.0 in /  0 mm
02:15 -7.0 °F /  -21.7 °C -7.8 °F /  -22.1 °C 1001.6 in /  33914.2 hPa Calm   1.6 mph /  2.6 km/h 94 % 0.0 in /  0 mm
02:30 -7.1 °F /  -21.7 °C -7.9 °F /  -22.2 °C 1001.6 in /  33914.2 hPa Calm   3.2 mph /  5.1 km/h 94 % 0.0 in /  0 mm
02:45 -7.2 °F /  -21.8 °C -7.8 °F /  -22.1 °C 1001.9 in /  33924.3 hPa Calm     95 % 0.0 in /  0 mm
03:00 -7.2 °F /  -21.8 °C -8.0 °F /  -22.2 °C 1001.9 in /  33924.3 hPa Calm   3.2 mph /  5.1 km/h 94 % 0.0 in /  0 mm
03:15 -7.3 °F /  -21.8 °C -8.1 °F /  -22.3 °C 1001.9 in /  33924.3 hPa Calm   1.6 mph /  2.6 km/h 94 % 0.0 in /  0 mm
03:30 -7.4 °F /  -21.9 °C -8.2 °F /  -22.3 °C 1002.3 in /  33937.9 hPa Calm   3.2 mph /  5.1 km/h 94 % 0.0 in /  0 mm
03:45 -7.3 °F /  -21.8 °C -8.1 °F /  -22.3 °C 1002.3 in /  33937.9 hPa Calm     94 % 0.0 in /  0 mm
04:00 -7.3 °F /  -21.8 °C -8.1 °F /  -22.3 °C 1002.3 in /  33937.9 hPa Calm   4.8 mph /  7.7 km/h 94 % 0.0 in /  0 mm
04:15 -7.4 °F /  -21.9 °C -8.2 °F /  -22.3 °C 1002.3 in /  33937.9 hPa Calm     94 % 0.0 in /  0 mm
04:30 -7.3 °F /  -21.8 °C -8.1 °F /  -22.3 °C 1002.3 in /  33937.9 hPa Calm     94 % 0.0 in /  0 mm
04:45 -7.3 °F /  -21.8 °C -8.1 °F /  -22.3 °C 1002.3 in /  33937.9 hPa Calm   3.2 mph /  5.1 km/h 94 % 0.0 in /  0 mm
05:00 -7.3 °F /  -21.8 °C -8.1 °F /  -22.3 °C 1002.3 in /  33937.9 hPa Calm     94 % 0.0 in /  0 mm
05:15 -7.2 °F /  -21.8 °C -7.8 °F /  -22.1 °C 1002.3 in /  33937.9 hPa Calm     95 % 0.0 in /  0 mm
05:30 -7.0 °F /  -21.7 °C -7.7 °F /  -22.1 °C 1002.3 in /  33937.9 hPa Calm     95 % 0.0 in /  0 mm
05:45 -6.9 °F /  -21.6 °C -7.6 °F /  -22 °C 1002.6 in /  33948 hPa Calm   3.2 mph /  5.1 km/h 95 % 0.0 in /  0 mm
06:00 -6.9 °F /  -21.6 °C -7.6 °F /  -22 °C 1002.6 in /  33948 hPa Calm   4.8 mph /  7.7 km/h 95 % 0.0 in /  0 mm
06:15 -7.0 °F /  -21.7 °C -7.8 °F /  -22.1 °C 1002.9 in /  33958.2 hPa Calm     94 % 0.0 in /  0 mm
06:30 -7.1 °F /  -21.7 °C -7.9 °F /  -22.2 °C 1002.9 in /  33958.2 hPa Calm   4.8 mph /  7.7 km/h 94 % 0.0 in /  0 mm
06:45 -7.1 °F /  -21.7 °C -7.9 °F /  -22.2 °C 1002.9 in /  33958.2 hPa Calm   3.2 mph /  5.1 km/h 94 % 0.0 in /  0 mm
07:00 -7.2 °F /  -21.8 °C -8.0 °F /  -22.2 °C 1002.9 in /  33958.2 hPa Calm   3.2 mph /  5.1 km/h 94 % 0.0 in /  0 mm
07:15 -7.2 °F /  -21.8 °C -8.0 °F /  -22.2 °C 1003.3 in /  33971.7 hPa Calm   4.8 mph /  7.7 km/h 94 % 0.0 in /  0 mm
07:30 -7.1 °F /  -21.7 °C -7.8 °F /  -22.1 °C 1003.3 in /  33971.7 hPa Calm   1.6 mph /  2.6 km/h 95 % 0.0 in /  0 mm
07:45 -7.1 °F /  -21.7 °C -7.7 °F /  -22.1 °C 1003.6 in /  33981.9 hPa Calm   3.2 mph /  5.1 km/h 95 % 0.0 in /  0 mm
08:00 -7.2 °F /  -21.8 °C -8.0 °F /  -22.2 °C 1003.6 in /  33981.9 hPa Calm   3.2 mph /  5.1 km/h 94 % 0.0 in /  0 mm
08:15 -7.2 °F /  -21.8 °C -8.0 °F /  -22.2 °C 1003.6 in /  33981.9 hPa Calm   4.8 mph /  7.7 km/h 94 % 0.0 in /  0 mm
08:30 -7.3 °F /  -21.8 °C -8.1 °F /  -22.3 °C 1003.9 in /  33992.1 hPa Calm   1.6 mph /  2.6 km/h 94 % 0.0 in /  0 mm
08:45 -7.3 °F /  -21.8 °C -8.1 °F /  -22.3 °C 1003.9 in /  33992.1 hPa Calm   3.2 mph /  5.1 km/h 94 % 0.0 in /  0 mm
09:00 -7.4 °F /  -21.9 °C -8.2 °F /  -22.3 °C 1004.3 in /  34005.6 hPa SSW 1.6 mph /  2.6 km/h 6.4 mph /  10.3 km/h 94 % 0.0 in /  0 mm
09:15 -7.4 °F /  -21.9 °C -8.2 °F /  -22.3 °C 1004.3 in /  34005.6 hPa Calm     94 % 0.0 in /  0 mm
09:30 -7.4 °F /  -21.9 °C -8.2 °F /  -22.3 °C 1004.6 in /  34015.8 hPa SW 1.6 mph /  2.6 km/h 4.8 mph /  7.7 km/h 94 % 0.0 in /  0 mm
09:45 -7.4 °F /  -21.9 °C -8.2 °F /  -22.3 °C 1004.6 in /  34015.8 hPa SW 1.6 mph /  2.6 km/h 4.8 mph /  7.7 km/h 94 % 0.0 in /  0 mm
10:00 -7.4 °F /  -21.9 °C -8.2 °F /  -22.3 °C 1005.0 in /  34029.3 hPa SW 3.2 mph /  5.1 km/h 6.4 mph /  10.3 km/h 94 % 0.0 in /  0 mm
10:15 -7.4 °F /  -21.9 °C -8.2 °F /  -22.3 °C 1004.6 in /  34015.8 hPa SW 1.6 mph /  2.6 km/h 6.4 mph /  10.3 km/h 94 % 0.0 in /  0 mm
10:30 -7.4 °F /  -21.9 °C -8.2 °F /  -22.3 °C 1005.0 in /  34029.3 hPa SSW 3.2 mph /  5.1 km/h 6.4 mph /  10.3 km/h 94 % 0.0 in /  0 mm
10:45 -7.4 °F /  -21.9 °C -8.2 °F /  -22.3 °C 1005.0 in /  34029.3 hPa Calm   4.8 mph /  7.7 km/h 94 % 0.0 in /  0 mm
11:00 -7.4 °F /  -21.9 °C -8.2 °F /  -22.3 °C 1005.0 in /  34029.3 hPa SSW 1.6 mph /  2.6 km/h 4.8 mph /  7.7 km/h 94 % 0.0 in /  0 mm
11:15 -7.3 °F /  -21.8 °C -8.1 °F /  -22.3 °C 1005.3 in /  34039.5 hPa Calm   4.8 mph /  7.7 km/h 94 % 0.0 in /  0 mm
11:30 -7.2 °F /  -21.8 °C -7.8 °F /  -22.1 °C 1005.3 in /  34039.5 hPa SSW 1.6 mph /  2.6 km/h 3.2 mph /  5.1 km/h 95 % 0.0 in /  0 mm
11:45 -7.1 °F /  -21.7 °C -7.8 °F /  -22.1 °C 1005.3 in /  34039.5 hPa SSW 1.6 mph /  2.6 km/h 4.8 mph /  7.7 km/h 95 % 0.0 in /  0 mm
12:00 -7.1 °F /  -21.7 °C -7.9 °F /  -22.2 °C 1005.6 in /  34049.6 hPa SSW 1.6 mph /  2.6 km/h 6.4 mph /  10.3 km/h 94 % 0.0 in /  0 mm
12:15 -7.0 °F /  -21.7 °C -7.8 °F /  -22.1 °C 1005.6 in /  34049.6 hPa SSW 1.6 mph /  2.6 km/h 4.8 mph /  7.7 km/h 94 % 0.0 in /  0 mm
12:30 -6.9 °F /  -21.6 °C -7.6 °F /  -22 °C 1005.6 in /  34049.6 hPa Calm   3.2 mph /  5.1 km/h 95 % 0.0 in /  0 mm
12:45 -6.9 °F /  -21.6 °C -7.7 °F /  -22.1 °C 1005.6 in /  34049.6 hPa SSW 1.6 mph /  2.6 km/h 6.4 mph /  10.3 km/h 94 % 0.0 in /  0 mm
13:00 -6.9 °F /  -21.6 °C -7.7 °F /  -22.1 °C 1005.6 in /  34049.6 hPa SW 1.6 mph /  2.6 km/h 6.4 mph /  10.3 km/h 94 % 0.0 in /  0 mm
13:15 -7.0 °F /  -21.7 °C -7.8 °F /  -22.1 °C 1006.0 in /  34063.2 hPa SW 1.6 mph /  2.6 km/h 8.0 mph /  12.9 km/h 94 % 0.0 in /  0 mm
13:30 -7.0 °F /  -21.7 °C -7.8 °F /  -22.1 °C 1006.0 in /  34063.2 hPa SW 1.6 mph /  2.6 km/h 4.8 mph /  7.7 km/h 94 % 0.0 in /  0 mm
13:45 -7.0 °F /  -21.7 °C -7.8 °F /  -22.1 °C 1006.0 in /  34063.2 hPa SW 1.6 mph /  2.6 km/h 6.4 mph /  10.3 km/h 94 % 0.0 in /  0 mm
14:00 -6.9 °F /  -21.6 °C -7.7 °F /  -22.1 °C 1006.0 in /  34063.2 hPa SW 1.6 mph /  2.6 km/h 6.4 mph /  10.3 km/h 94 % 0.0 in /  0 mm
14:15 -6.9 °F /  -21.6 °C -7.7 °F /  -22.1 °C 1006.3 in /  34073.3 hPa Calm     94 % 0.0 in /  0 mm
14:30 -6.8 °F /  -21.6 °C -7.6 °F /  -22 °C 1006.3 in /  34073.3 hPa SW 1.6 mph /  2.6 km/h 4.8 mph /  7.7 km/h 94 % 0.0 in /  0 mm
14:45 -6.7 °F /  -21.5 °C -7.5 °F /  -21.9 °C 1006.3 in /  34073.3 hPa Calm   4.8 mph /  7.7 km/h 94 % 0.0 in /  0 mm
15:00 -6.6 °F /  -21.4 °C -7.2 °F /  -21.8 °C 1006.3 in /  34073.3 hPa Calm   3.2 mph /  5.1 km/h 95 % 0.0 in /  0 mm
15:15 -6.6 °F /  -21.4 °C -7.4 °F /  -21.9 °C 1006.7 in /  34086.9 hPa Calm   1.6 mph /  2.6 km/h 94 % 0.0 in /  0 mm
15:30 -6.8 °F /  -21.6 °C -7.6 °F /  -22 °C 1006.7 in /  34086.9 hPa Calm     94 % 0.0 in /  0 mm
15:45 -7.1 °F /  -21.7 °C -7.9 °F /  -22.2 °C 1006.7 in /  34086.9 hPa Calm     94 % 0.0 in /  0 mm
16:00 -7.4 °F /  -21.9 °C -8.4 °F /  -22.4 °C 1006.7 in /  34086.9 hPa Calm     93 % 0.0 in /  0 mm
16:15 -7.7 °F /  -22.1 °C -8.7 °F /  -22.6 °C 1007.0 in /  34097 hPa Calm   3.2 mph /  5.1 km/h 93 % 0.0 in /  0 mm
16:30 -7.6 °F /  -22 °C -8.4 °F /  -22.4 °C 1007.0 in /  34097 hPa Calm     94 % 0.0 in /  0 mm
16:45 -7.3 °F /  -21.8 °C -7.9 °F /  -22.2 °C 1007.0 in /  34097 hPa Calm     95 % 0.0 in /  0 mm
17:00 -6.8 °F /  -21.6 °C -7.5 °F /  -21.9 °C 1007.0 in /  34097 hPa Calm     95 % 0.0 in /  0 mm
17:15 -6.7 °F /  -21.5 °C -7.5 °F /  -21.9 °C 1007.3 in /  34107.2 hPa Calm     94 % 0.0 in /  0 mm
17:30 -6.6 °F /  -21.4 °C -7.3 °F /  -21.8 °C 1007.3 in /  34107.2 hPa Calm     95 % 0.0 in /  0 mm
17:45 -6.4 °F /  -21.3 °C -7.1 °F /  -21.7 °C 1007.3 in /  34107.2 hPa Calm   3.2 mph /  5.1 km/h 95 % 0.0 in /  0 mm
18:00 -6.2 °F /  -21.2 °C -6.9 °F /  -21.6 °C 1007.3 in /  34107.2 hPa Calm     95 % 0.0 in /  0 mm
18:15 -6.2 °F /  -21.2 °C -6.9 °F /  -21.6 °C 1007.7 in /  34120.7 hPa Calm   1.6 mph /  2.6 km/h 95 % 0.0 in /  0 mm
18:30 -6.1 °F /  -21.2 °C -6.8 °F /  -21.6 °C 1007.7 in /  34120.7 hPa Calm     95 % 0.0 in /  0 mm
18:45 -6.3 °F /  -21.3 °C -7.1 °F /  -21.7 °C 1007.7 in /  34120.7 hPa Calm     94 % 0.0 in /  0 mm
19:00 -6.4 °F /  -21.3 °C -7.2 °F /  -21.8 °C 1007.7 in /  34120.7 hPa Calm   4.8 mph /  7.7 km/h 94 % 0.0 in /  0 mm
19:15 -6.9 °F /  -21.6 °C -7.8 °F /  -22.1 °C 1008.0 in /  34130.9 hPa Calm     93 % 0.0 in /  0 mm
19:30 -6.9 °F /  -21.6 °C -7.7 °F /  -22.1 °C 1008.0 in /  34130.9 hPa Calm     94 % 0.0 in /  0 mm
19:45 -7.2 °F /  -21.8 °C -8.1 °F /  -22.3 °C 1008.0 in /  34130.9 hPa Calm     93 % 0.0 in /  0 mm
20:00 -7.3 °F /  -21.8 °C -8.3 °F /  -22.4 °C 1008.4 in /  34144.4 hPa Calm     93 % 0.0 in /  0 mm
20:15 -7.6 °F /  -22 °C -8.5 °F /  -22.5 °C 1008.4 in /  34144.4 hPa Calm     93 % 0.0 in /  0 mm
20:30 -7.6 °F /  -22 °C -8.4 °F /  -22.4 °C 1008.4 in /  34144.4 hPa Calm     94 % 0.0 in /  0 mm
20:45 -7.6 °F /  -22 °C -8.5 °F /  -22.5 °C 1008.4 in /  34144.4 hPa Calm     93 % 0.0 in /  0 mm
21:00 -7.8 °F /  -22.1 °C -8.8 °F /  -22.7 °C 1009.0 in /  34164.7 hPa Calm   1.6 mph /  2.6 km/h 93 % 0.0 in /  0 mm
21:15 -8.2 °F /  -22.3 °C -9.3 °F /  -22.9 °C 1009.0 in /  34164.7 hPa Calm     92 % 0.0 in /  0 mm
21:30 -8.3 °F /  -22.4 °C -9.3 °F /  -22.9 °C 1009.0 in /  34164.7 hPa Calm     93 % 0.0 in /  0 mm
21:45 -8.4 °F /  -22.4 °C -9.3 °F /  -22.9 °C 1009.0 in /  34164.7 hPa Calm     93 % 0.0 in /  0 mm
22:00 -8.7 °F /  -22.6 °C -9.6 °F /  -23.1 °C 1009.4 in /  34178.3 hPa Calm   3.2 mph /  5.1 km/h 93 % 0.0 in /  0 mm
22:15 -8.5 °F /  -22.5 °C -9.4 °F /  -23 °C 1009.7 in /  34188.4 hPa Calm     93 % 0.0 in /  0 mm
22:30 -8.8 °F /  -22.7 °C -9.9 °F /  -23.3 °C 1009.7 in /  34188.4 hPa Calm     92 % 0.0 in /  0 mm
22:45 -9.1 °F /  -22.8 °C -10.1 °F /  -23.4 °C 1010.0 in /  34198.6 hPa Calm     92 % 0.0 in /  0 mm
23:00 -9.4 °F /  -23 °C -10.5 °F /  -23.6 °C 1010.0 in /  34198.6 hPa Calm     92 % 0.0 in /  0 mm
23:15 -9.7 °F /  -23.2 °C -10.8 °F /  -23.8 °C 1010.4 in /  34212.1 hPa Calm     92 % 0.0 in /  0 mm
23:30 -9.9 °F /  -23.3 °C -10.9 °F /  -23.8 °C 1010.7 in /  34222.3 hPa Calm     92 % 0.0 in /  0 mm
23:45 -9.9 °F /  -23.3 °C -10.9 °F /  -23.8 °C 1010.7 in /  34222.3 hPa Calm     92 % 0.0 in /  0 mm
Esan sääasema
Terveisin Weather Underground - 2.75 mb

Alkuperäinen skripti  Jim McMurry - jmcmurry@mwt.net Sovitettu myös templatelle  Wim van der Kuil - Leuven-Template.eu

Laitteet joita käytämme:

Sääasema
Davis VP2

Sääasemaohjelma
Cumulus

Sääaseman tietokone
Asus EeePC

Palveluntarjoaja
Suncomet

Davis VP2

Cumulus

Asus EeePC

Suncomet